Atwater, California
Current Conditions -  °F | °C
As of 3:45 PM on Friday 28 Nov 2014 (Local Time) from KMER Reporting Station
Haze Haze  
Wind Chill: 70°   Ceiling: Unl
Heat Index: 70°   Visibility: 4mi
Dew Point: 48°   Wind: 5mph
Humidity: 46%   Direction: NA
Pressure: 29.89"   Gusts: NA
Location:  37.35°N, 120.6°W
Report Text: KMER 282345Z VRB04KT 4SM HZ SKC 21/09 A2989
Loading
Personal Weather Stations






























Interactive Weather Map New forecast layout! Learn more

10-Day Weather Forecast

Advertisements
Track Severe Weather on mobile